sensor_id;sensor_type;location;lat;lon;timestamp;P1;durP1;ratioP1;P2;durP2;ratioP2
66089;SDS011;53113;45.602;11.904;2022-11-15T00:02:21;19.60;;;13.20;;
66089;SDS011;53113;45.602;11.904;2022-11-15T00:04:46;18.30;;;13.60;;
66089;SDS011;53113;45.602;11.904;2022-11-15T00:07:12;17.60;;;13.10;;
66089;SDS011;53113;45.602;11.904;2022-11-15T00:09:38;20.00;;;15.20;;
66089;SDS011;53113;45.602;11.904;2022-11-15T00:12:03;18.10;;;13.20;;
66089;SDS011;53113;45.602;11.904;2022-11-15T00:14:29;20.00;;;14.70;;
66089;SDS011;53113;45.602;11.904;2022-11-15T00:16:55;22.80;;;14.50;;
66089;SDS011;53113;45.602;11.904;2022-11-15T00:19:21;18.90;;;13.80;;
66089;SDS011;53113;45.602;11.904;2022-11-15T00:21:47;18.50;;;13.30;;
66089;SDS011;53113;45.602;11.904;2022-11-15T00:24:12;18.80;;;13.20;;
66089;SDS011;53113;45.602;11.904;2022-11-15T00:26:38;17.60;;;13.40;;
66089;SDS011;53113;45.602;11.904;2022-11-15T00:29:04;20.20;;;14.30;;
66089;SDS011;53113;45.602;11.904;2022-11-15T00:31:30;15.70;;;11.10;;
66089;SDS011;53113;45.602;11.904;2022-11-15T00:33:56;17.30;;;12.40;;
66089;SDS011;53113;45.602;11.904;2022-11-15T00:36:22;21.90;;;14.50;;
66089;SDS011;53113;45.602;11.904;2022-11-15T00:38:48;17.60;;;13.40;;
66089;SDS011;53113;45.602;11.904;2022-11-15T00:41:13;20.50;;;14.50;;
66089;SDS011;53113;45.602;11.904;2022-11-15T00:43:39;18.10;;;12.40;;
66089;SDS011;53113;45.602;11.904;2022-11-15T00:46:05;17.90;;;12.90;;
66089;SDS011;53113;45.602;11.904;2022-11-15T00:48:33;19.30;;;14.10;;
66089;SDS011;53113;45.602;11.904;2022-11-15T00:50:59;17.40;;;13.80;;
66089;SDS011;53113;45.602;11.904;2022-11-15T00:53:25;18.60;;;13.90;;
66089;SDS011;53113;45.602;11.904;2022-11-15T00:55:51;15.40;;;11.70;;
66089;SDS011;53113;45.602;11.904;2022-11-15T00:58:17;14.50;;;10.60;;
66089;SDS011;53113;45.602;11.904;2022-11-15T01:00:43;14.80;;;11.20;;
66089;SDS011;53113;45.602;11.904;2022-11-15T01:03:09;18.40;;;13.50;;
66089;SDS011;53113;45.602;11.904;2022-11-15T01:05:36;16.40;;;12.50;;
66089;SDS011;53113;45.602;11.904;2022-11-15T01:08:03;16.70;;;12.50;;
66089;SDS011;53113;45.602;11.904;2022-11-15T01:10:29;15.00;;;10.70;;
66089;SDS011;53113;45.602;11.904;2022-11-15T01:12:55;13.70;;;10.40;;
66089;SDS011;53113;45.602;11.904;2022-11-15T01:15:20;17.00;;;12.20;;
66089;SDS011;53113;45.602;11.904;2022-11-15T01:17:46;17.60;;;13.20;;
66089;SDS011;53113;45.602;11.904;2022-11-15T01:20:12;18.30;;;12.80;;
66089;SDS011;53113;45.602;11.904;2022-11-15T01:22:38;18.60;;;14.20;;
66089;SDS011;53113;45.602;11.904;2022-11-15T01:25:04;21.50;;;15.30;;
66089;SDS011;53113;45.602;11.904;2022-11-15T01:27:30;20.00;;;14.10;;
66089;SDS011;53113;45.602;11.904;2022-11-15T01:29:56;20.10;;;14.50;;
66089;SDS011;53113;45.602;11.904;2022-11-15T01:32:21;21.10;;;15.50;;
66089;SDS011;53113;45.602;11.904;2022-11-15T01:34:47;22.40;;;14.90;;
66089;SDS011;53113;45.602;11.904;2022-11-15T01:37:13;21.80;;;14.60;;
66089;SDS011;53113;45.602;11.904;2022-11-15T01:39:38;23.20;;;15.90;;
66089;SDS011;53113;45.602;11.904;2022-11-15T01:42:04;19.70;;;13.90;;
66089;SDS011;53113;45.602;11.904;2022-11-15T01:46:56;21.00;;;15.10;;
66089;SDS011;53113;45.602;11.904;2022-11-15T01:49:24;23.00;;;15.80;;
66089;SDS011;53113;45.602;11.904;2022-11-15T01:51:55;25.20;;;16.00;;
66089;SDS011;53113;45.602;11.904;2022-11-15T01:54:22;23.20;;;17.10;;
66089;SDS011;53113;45.602;11.904;2022-11-15T01:56:53;28.10;;;17.20;;
66089;SDS011;53113;45.602;11.904;2022-11-15T01:59:25;22.10;;;15.80;;
66089;SDS011;53113;45.602;11.904;2022-11-15T02:01:51;24.80;;;18.20;;
66089;SDS011;53113;45.602;11.904;2022-11-15T02:04:37;22.50;;;16.50;;
66089;SDS011;53113;45.602;11.904;2022-11-15T02:07:11;23.90;;;16.80;;
66089;SDS011;53113;45.602;11.904;2022-11-15T02:09:40;24.50;;;17.60;;
66089;SDS011;53113;45.602;11.904;2022-11-15T02:12:07;29.10;;;19.20;;
66089;SDS011;53113;45.602;11.904;2022-11-15T02:14:35;27.70;;;18.20;;
66089;SDS011;53113;45.602;11.904;2022-11-15T02:17:13;29.30;;;20.60;;
66089;SDS011;53113;45.602;11.904;2022-11-15T02:20:13;27.10;;;19.40;;
66089;SDS011;53113;45.602;11.904;2022-11-15T02:25:52;26.50;;;17.60;;
66089;SDS011;53113;45.602;11.904;2022-11-15T02:34:04;24.30;;;17.20;;
66089;SDS011;53113;45.602;11.904;2022-11-15T02:37:21;27.90;;;18.30;;
66089;SDS011;53113;45.602;11.904;2022-11-15T02:39:37;26.60;;;18.40;;
66089;SDS011;53113;45.602;11.904;2022-11-15T02:42:16;24.40;;;17.90;;
66089;SDS011;53113;45.602;11.904;2022-11-15T02:45:05;23.90;;;16.00;;
66089;SDS011;53113;45.602;11.904;2022-11-15T02:47:37;21.80;;;14.60;;
66089;SDS011;53113;45.602;11.904;2022-11-15T02:50:12;23.70;;;16.40;;
66089;SDS011;53113;45.602;11.904;2022-11-15T02:52:44;24.00;;;15.00;;
66089;SDS011;53113;45.602;11.904;2022-11-15T02:55:28;17.30;;;11.80;;
66089;SDS011;53113;45.602;11.904;2022-11-15T03:06:41;13.30;;;9.90;;
66089;SDS011;53113;45.602;11.904;2022-11-15T03:11:53;16.70;;;12.20;;
66089;SDS011;53113;45.602;11.904;2022-11-15T03:15:01;16.90;;;11.20;;
66089;SDS011;53113;45.602;11.904;2022-11-15T03:17:40;15.20;;;10.20;;
66089;SDS011;53113;45.602;11.904;2022-11-15T03:20:12;19.60;;;13.30;;
66089;SDS011;53113;45.602;11.904;2022-11-15T03:22:42;17.40;;;11.90;;
66089;SDS011;53113;45.602;11.904;2022-11-15T03:25:10;16.50;;;11.70;;
66089;SDS011;53113;45.602;11.904;2022-11-15T03:27:44;16.70;;;11.70;;
66089;SDS011;53113;45.602;11.904;2022-11-15T03:30:16;20.30;;;13.20;;
66089;SDS011;53113;45.602;11.904;2022-11-15T03:32:59;21.30;;;14.90;;
66089;SDS011;53113;45.602;11.904;2022-11-15T03:35:30;20.60;;;13.50;;
66089;SDS011;53113;45.602;11.904;2022-11-15T03:40:53;17.30;;;11.50;;
66089;SDS011;53113;45.602;11.904;2022-11-15T03:43:34;16.90;;;11.10;;
66089;SDS011;53113;45.602;11.904;2022-11-15T03:46:07;15.80;;;11.20;;
66089;SDS011;53113;45.602;11.904;2022-11-15T03:48:56;15.40;;;11.30;;
66089;SDS011;53113;45.602;11.904;2022-11-15T03:51:37;15.90;;;10.60;;
66089;SDS011;53113;45.602;11.904;2022-11-15T03:54:05;19.30;;;13.50;;
66089;SDS011;53113;45.602;11.904;2022-11-15T03:56:31;27.10;;;17.30;;
66089;SDS011;53113;45.602;11.904;2022-11-15T03:58:57;24.60;;;15.20;;
66089;SDS011;53113;45.602;11.904;2022-11-15T04:01:23;20.40;;;14.60;;
66089;SDS011;53113;45.602;11.904;2022-11-15T04:03:49;23.30;;;14.90;;
66089;SDS011;53113;45.602;11.904;2022-11-15T04:06:15;19.90;;;14.30;;
66089;SDS011;53113;45.602;11.904;2022-11-15T04:08:41;19.30;;;13.50;;
66089;SDS011;53113;45.602;11.904;2022-11-15T04:11:07;19.20;;;13.80;;
66089;SDS011;53113;45.602;11.904;2022-11-15T04:13:33;22.20;;;15.40;;
66089;SDS011;53113;45.602;11.904;2022-11-15T04:15:58;21.50;;;15.00;;
66089;SDS011;53113;45.602;11.904;2022-11-15T04:18:24;22.00;;;15.50;;
66089;SDS011;53113;45.602;11.904;2022-11-15T04:20:49;23.20;;;16.00;;
66089;SDS011;53113;45.602;11.904;2022-11-15T04:23:34;19.30;;;13.70;;
66089;SDS011;53113;45.602;11.904;2022-11-15T04:26:18;19.70;;;14.70;;
66089;SDS011;53113;45.602;11.904;2022-11-15T04:28:46;18.70;;;13.80;;
66089;SDS011;53113;45.602;11.904;2022-11-15T04:31:30;17.70;;;13.00;;
66089;SDS011;53113;45.602;11.904;2022-11-15T04:33:56;17.00;;;12.60;;
66089;SDS011;53113;45.602;11.904;2022-11-15T04:36:22;16.90;;;13.00;;
66089;SDS011;53113;45.602;11.904;2022-11-15T04:39:07;17.70;;;13.30;;
66089;SDS011;53113;45.602;11.904;2022-11-15T04:41:33;18.00;;;13.50;;
66089;SDS011;53113;45.602;11.904;2022-11-15T04:43:59;18.40;;;13.80;;
66089;SDS011;53113;45.602;11.904;2022-11-15T04:46:25;18.00;;;13.70;;
66089;SDS011;53113;45.602;11.904;2022-11-15T04:48:51;18.20;;;13.70;;
66089;SDS011;53113;45.602;11.904;2022-11-15T04:51:17;16.70;;;12.80;;
66089;SDS011;53113;45.602;11.904;2022-11-15T04:53:43;16.60;;;12.90;;
66089;SDS011;53113;45.602;11.904;2022-11-15T04:56:09;17.10;;;12.70;;
66089;SDS011;53113;45.602;11.904;2022-11-15T04:58:35;18.20;;;13.10;;
66089;SDS011;53113;45.602;11.904;2022-11-15T05:01:08;18.90;;;14.50;;
66089;SDS011;53113;45.602;11.904;2022-11-15T05:03:43;20.80;;;15.30;;
66089;SDS011;53113;45.602;11.904;2022-11-15T05:06:28;19.50;;;14.40;;
66089;SDS011;53113;45.602;11.904;2022-11-15T05:08:54;19.90;;;14.80;;
66089;SDS011;53113;45.602;11.904;2022-11-15T05:11:21;18.30;;;14.50;;
66089;SDS011;53113;45.602;11.904;2022-11-15T05:13:48;17.00;;;12.30;;
66089;SDS011;53113;45.602;11.904;2022-11-15T05:16:14;16.10;;;12.20;;
66089;SDS011;53113;45.602;11.904;2022-11-15T05:18:39;14.60;;;12.00;;
66089;SDS011;53113;45.602;11.904;2022-11-15T05:21:10;15.00;;;11.70;;
66089;SDS011;53113;45.602;11.904;2022-11-15T05:23:38;16.10;;;12.50;;
66089;SDS011;53113;45.602;11.904;2022-11-15T05:26:04;15.70;;;12.20;;
66089;SDS011;53113;45.602;11.904;2022-11-15T05:28:32;15.60;;;12.00;;
66089;SDS011;53113;45.602;11.904;2022-11-15T05:31:06;16.30;;;12.40;;
66089;SDS011;53113;45.602;11.904;2022-11-15T05:33:36;16.90;;;12.30;;
66089;SDS011;53113;45.602;11.904;2022-11-15T05:38:41;16.10;;;11.60;;
66089;SDS011;53113;45.602;11.904;2022-11-15T05:41:07;15.70;;;11.90;;
66089;SDS011;53113;45.602;11.904;2022-11-15T05:43:34;15.10;;;11.10;;
66089;SDS011;53113;45.602;11.904;2022-11-15T05:46:04;13.10;;;10.70;;
66089;SDS011;53113;45.602;11.904;2022-11-15T05:48:31;13.50;;;10.90;;
66089;SDS011;53113;45.602;11.904;2022-11-15T05:50:59;16.20;;;12.40;;
66089;SDS011;53113;45.602;11.904;2022-11-15T05:53:26;14.30;;;11.20;;
66089;SDS011;53113;45.602;11.904;2022-11-15T05:55:52;15.00;;;11.40;;
66089;SDS011;53113;45.602;11.904;2022-11-15T05:58:18;15.70;;;12.00;;
66089;SDS011;53113;45.602;11.904;2022-11-15T06:00:46;14.90;;;11.60;;
66089;SDS011;53113;45.602;11.904;2022-11-15T06:03:12;13.90;;;11.30;;
66089;SDS011;53113;45.602;11.904;2022-11-15T06:05:40;14.40;;;11.40;;
66089;SDS011;53113;45.602;11.904;2022-11-15T06:08:06;14.20;;;10.80;;
66089;SDS011;53113;45.602;11.904;2022-11-15T06:10:32;13.70;;;10.00;;
66089;SDS011;53113;45.602;11.904;2022-11-15T06:15:25;14.90;;;11.50;;
66089;SDS011;53113;45.602;11.904;2022-11-15T06:17:50;16.90;;;12.30;;
66089;SDS011;53113;45.602;11.904;2022-11-15T06:20:17;14.60;;;11.60;;
66089;SDS011;53113;45.602;11.904;2022-11-15T06:22:43;15.80;;;12.10;;
66089;SDS011;53113;45.602;11.904;2022-11-15T06:25:09;17.00;;;12.80;;
66089;SDS011;53113;45.602;11.904;2022-11-15T06:27:35;18.20;;;14.10;;
66089;SDS011;53113;45.602;11.904;2022-11-15T06:30:00;16.90;;;13.30;;
66089;SDS011;53113;45.602;11.904;2022-11-15T06:32:26;16.10;;;13.10;;
66089;SDS011;53113;45.602;11.904;2022-11-15T06:34:52;15.50;;;12.40;;
66089;SDS011;53113;45.602;11.904;2022-11-15T06:37:18;15.60;;;11.80;;
66089;SDS011;53113;45.602;11.904;2022-11-15T06:39:43;16.60;;;12.00;;
66089;SDS011;53113;45.602;11.904;2022-11-15T06:42:09;16.00;;;12.10;;
66089;SDS011;53113;45.602;11.904;2022-11-15T06:44:35;15.70;;;12.50;;
66089;SDS011;53113;45.602;11.904;2022-11-15T06:47:01;15.80;;;11.80;;
66089;SDS011;53113;45.602;11.904;2022-11-15T06:49:26;14.90;;;11.80;;
66089;SDS011;53113;45.602;11.904;2022-11-15T06:51:52;16.40;;;12.30;;
66089;SDS011;53113;45.602;11.904;2022-11-15T06:54:18;16.60;;;13.00;;
66089;SDS011;53113;45.602;11.904;2022-11-15T06:56:44;18.50;;;14.00;;
66089;SDS011;53113;45.602;11.904;2022-11-15T06:59:10;15.10;;;10.90;;
66089;SDS011;53113;45.602;11.904;2022-11-15T07:01:36;16.40;;;11.70;;
66089;SDS011;53113;45.602;11.904;2022-11-15T07:04:01;16.00;;;11.50;;
66089;SDS011;53113;45.602;11.904;2022-11-15T07:06:27;16.80;;;11.90;;
66089;SDS011;53113;45.602;11.904;2022-11-15T07:08:53;16.60;;;11.70;;
66089;SDS011;53113;45.602;11.904;2022-11-15T07:11:19;14.10;;;11.10;;
66089;SDS011;53113;45.602;11.904;2022-11-15T07:13:44;16.20;;;11.40;;
66089;SDS011;53113;45.602;11.904;2022-11-15T07:16:10;17.10;;;13.00;;
66089;SDS011;53113;45.602;11.904;2022-11-15T07:18:37;17.30;;;12.90;;
66089;SDS011;53113;45.602;11.904;2022-11-15T07:21:05;18.70;;;14.10;;
66089;SDS011;53113;45.602;11.904;2022-11-15T07:23:35;16.30;;;13.00;;
66089;SDS011;53113;45.602;11.904;2022-11-15T07:26:03;17.10;;;12.70;;
66089;SDS011;53113;45.602;11.904;2022-11-15T07:28:30;17.00;;;11.60;;
66089;SDS011;53113;45.602;11.904;2022-11-15T07:30:55;15.20;;;11.50;;
66089;SDS011;53113;45.602;11.904;2022-11-15T07:33:21;16.50;;;11.50;;
66089;SDS011;53113;45.602;11.904;2022-11-15T07:35:47;14.90;;;10.70;;
66089;SDS011;53113;45.602;11.904;2022-11-15T07:38:16;15.30;;;12.00;;
66089;SDS011;53113;45.602;11.904;2022-11-15T07:40:46;16.00;;;11.90;;
66089;SDS011;53113;45.602;11.904;2022-11-15T07:43:13;17.20;;;12.20;;
66089;SDS011;53113;45.602;11.904;2022-11-15T07:45:42;16.60;;;12.70;;
66089;SDS011;53113;45.602;11.904;2022-11-15T07:48:09;14.70;;;11.70;;
66089;SDS011;53113;45.602;11.904;2022-11-15T07:50:36;15.80;;;12.30;;
66089;SDS011;53113;45.602;11.904;2022-11-15T07:53:05;15.80;;;11.90;;
66089;SDS011;53113;45.602;11.904;2022-11-15T07:55:31;14.20;;;10.30;;
66089;SDS011;53113;45.602;11.904;2022-11-15T07:58:00;14.60;;;11.10;;
66089;SDS011;53113;45.602;11.904;2022-11-15T08:00:28;18.40;;;14.30;;
66089;SDS011;53113;45.602;11.904;2022-11-15T08:03:01;17.30;;;12.40;;
66089;SDS011;53113;45.602;11.904;2022-11-15T08:05:31;19.30;;;13.70;;
66089;SDS011;53113;45.602;11.904;2022-11-15T08:07:57;18.90;;;14.50;;
66089;SDS011;53113;45.602;11.904;2022-11-15T08:10:23;20.00;;;14.00;;
66089;SDS011;53113;45.602;11.904;2022-11-15T08:13:03;18.20;;;12.80;;
66089;SDS011;53113;45.602;11.904;2022-11-15T08:15:31;18.90;;;13.80;;
66089;SDS011;53113;45.602;11.904;2022-11-15T08:17:59;15.20;;;12.20;;
66089;SDS011;53113;45.602;11.904;2022-11-15T08:20:28;16.60;;;12.20;;
66089;SDS011;53113;45.602;11.904;2022-11-15T08:22:56;16.00;;;11.80;;
66089;SDS011;53113;45.602;11.904;2022-11-15T08:25:23;15.60;;;11.60;;
66089;SDS011;53113;45.602;11.904;2022-11-15T08:27:52;13.50;;;11.10;;
66089;SDS011;53113;45.602;11.904;2022-11-15T08:30:19;17.00;;;12.70;;
66089;SDS011;53113;45.602;11.904;2022-11-15T08:32:46;19.00;;;13.80;;
66089;SDS011;53113;45.602;11.904;2022-11-15T08:35:13;20.00;;;13.70;;
66089;SDS011;53113;45.602;11.904;2022-11-15T08:37:39;16.10;;;12.00;;
66089;SDS011;53113;45.602;11.904;2022-11-15T08:40:05;17.60;;;13.40;;
66089;SDS011;53113;45.602;11.904;2022-11-15T08:42:32;15.90;;;11.80;;
66089;SDS011;53113;45.602;11.904;2022-11-15T08:44:58;17.10;;;11.70;;
66089;SDS011;53113;45.602;11.904;2022-11-15T08:47:24;17.50;;;12.00;;
66089;SDS011;53113;45.602;11.904;2022-11-15T08:49:50;16.00;;;11.70;;
66089;SDS011;53113;45.602;11.904;2022-11-15T08:52:16;17.00;;;12.00;;
66089;SDS011;53113;45.602;11.904;2022-11-15T08:54:42;16.50;;;12.10;;
66089;SDS011;53113;45.602;11.904;2022-11-15T08:57:07;17.30;;;12.90;;
66089;SDS011;53113;45.602;11.904;2022-11-15T08:59:35;16.70;;;12.60;;
66089;SDS011;53113;45.602;11.904;2022-11-15T09:02:01;18.30;;;12.70;;
66089;SDS011;53113;45.602;11.904;2022-11-15T09:04:28;16.90;;;12.50;;
66089;SDS011;53113;45.602;11.904;2022-11-15T09:06:54;17.80;;;12.40;;
66089;SDS011;53113;45.602;11.904;2022-11-15T09:09:20;16.10;;;12.00;;
66089;SDS011;53113;45.602;11.904;2022-11-15T09:11:45;16.50;;;12.30;;
66089;SDS011;53113;45.602;11.904;2022-11-15T09:14:12;16.50;;;12.10;;
66089;SDS011;53113;45.602;11.904;2022-11-15T09:16:38;20.80;;;15.50;;
66089;SDS011;53113;45.602;11.904;2022-11-15T09:19:04;19.90;;;14.60;;
66089;SDS011;53113;45.602;11.904;2022-11-15T09:21:30;18.40;;;13.80;;
66089;SDS011;53113;45.602;11.904;2022-11-15T09:23:57;16.70;;;12.70;;
66089;SDS011;53113;45.602;11.904;2022-11-15T09:26:23;16.90;;;13.00;;
66089;SDS011;53113;45.602;11.904;2022-11-15T09:28:49;16.70;;;12.60;;
66089;SDS011;53113;45.602;11.904;2022-11-15T09:31:15;16.10;;;12.20;;
66089;SDS011;53113;45.602;11.904;2022-11-15T09:33:44;16.40;;;12.30;;
66089;SDS011;53113;45.602;11.904;2022-11-15T09:36:11;14.90;;;11.40;;
66089;SDS011;53113;45.602;11.904;2022-11-15T09:38:37;16.30;;;12.20;;
66089;SDS011;53113;45.602;11.904;2022-11-15T09:41:40;16.20;;;11.70;;
66089;SDS011;53113;45.602;11.904;2022-11-15T09:44:29;16.20;;;12.50;;
66089;SDS011;53113;45.602;11.904;2022-11-15T09:50:11;15.40;;;12.30;;
66089;SDS011;53113;45.602;11.904;2022-11-15T09:52:41;15.20;;;12.50;;
66089;SDS011;53113;45.602;11.904;2022-11-15T09:55:10;16.30;;;11.90;;
66089;SDS011;53113;45.602;11.904;2022-11-15T09:57:50;15.10;;;11.90;;
66089;SDS011;53113;45.602;11.904;2022-11-15T10:00:38;19.30;;;12.80;;
66089;SDS011;53113;45.602;11.904;2022-11-15T10:05:43;18.90;;;14.20;;
66089;SDS011;53113;45.602;11.904;2022-11-15T10:11:02;21.40;;;13.80;;
66089;SDS011;53113;45.602;11.904;2022-11-15T10:13:32;18.60;;;14.40;;
66089;SDS011;53113;45.602;11.904;2022-11-15T10:18:36;17.00;;;12.50;;
66089;SDS011;53113;45.602;11.904;2022-11-15T10:24:23;18.20;;;13.50;;
66089;SDS011;53113;45.602;11.904;2022-11-15T10:26:54;17.70;;;13.50;;
66089;SDS011;53113;45.602;11.904;2022-11-15T10:29:21;16.80;;;13.20;;
66089;SDS011;53113;45.602;11.904;2022-11-15T10:31:49;17.20;;;12.70;;
66089;SDS011;53113;45.602;11.904;2022-11-15T10:34:17;15.50;;;12.70;;
66089;SDS011;53113;45.602;11.904;2022-11-15T10:36:54;17.40;;;13.40;;
66089;SDS011;53113;45.602;11.904;2022-11-15T10:40:15;15.20;;;12.30;;
66089;SDS011;53113;45.602;11.904;2022-11-15T10:42:41;19.30;;;14.70;;
66089;SDS011;53113;45.602;11.904;2022-11-15T10:45:28;19.50;;;14.80;;
66089;SDS011;53113;45.602;11.904;2022-11-15T10:48:18;19.90;;;16.30;;
66089;SDS011;53113;45.602;11.904;2022-11-15T10:50:47;20.30;;;15.10;;
66089;SDS011;53113;45.602;11.904;2022-11-15T10:53:37;22.20;;;16.70;;
66089;SDS011;53113;45.602;11.904;2022-11-15T10:56:14;20.10;;;15.40;;
66089;SDS011;53113;45.602;11.904;2022-11-15T10:58:43;19.50;;;15.00;;
66089;SDS011;53113;45.602;11.904;2022-11-15T11:04:06;18.60;;;14.70;;
66089;SDS011;53113;45.602;11.904;2022-11-15T11:09:29;18.40;;;13.00;;
66089;SDS011;53113;45.602;11.904;2022-11-15T11:11:58;17.80;;;13.60;;
66089;SDS011;53113;45.602;11.904;2022-11-15T11:14:25;19.00;;;14.00;;
66089;SDS011;53113;45.602;11.904;2022-11-15T11:17:00;18.10;;;13.60;;
66089;SDS011;53113;45.602;11.904;2022-11-15T11:19:46;19.10;;;14.70;;
66089;SDS011;53113;45.602;11.904;2022-11-15T11:22:26;19.40;;;14.70;;
66089;SDS011;53113;45.602;11.904;2022-11-15T11:30:59;15.40;;;11.50;;
66089;SDS011;53113;45.602;11.904;2022-11-15T11:33:55;22.00;;;15.00;;
66089;SDS011;53113;45.602;11.904;2022-11-15T11:36:42;17.60;;;13.00;;
66089;SDS011;53113;45.602;11.904;2022-11-15T11:47:09;18.00;;;14.20;;
66089;SDS011;53113;45.602;11.904;2022-11-15T11:54:56;16.00;;;12.20;;
66089;SDS011;53113;45.602;11.904;2022-11-15T11:57:37;22.90;;;14.90;;
66089;SDS011;53113;45.602;11.904;2022-11-15T12:00:21;19.40;;;13.70;;
66089;SDS011;53113;45.602;11.904;2022-11-15T12:03:05;18.60;;;14.50;;
66089;SDS011;53113;45.602;11.904;2022-11-15T12:17:19;17.80;;;13.90;;
66089;SDS011;53113;45.602;11.904;2022-11-15T12:19:49;19.70;;;13.90;;
66089;SDS011;53113;45.602;11.904;2022-11-15T12:22:19;17.20;;;13.40;;
66089;SDS011;53113;45.602;11.904;2022-11-15T12:29:53;18.00;;;14.50;;
66089;SDS011;53113;45.602;11.904;2022-11-15T12:38:10;19.00;;;13.60;;
66089;SDS011;53113;45.602;11.904;2022-11-15T12:40:39;19.40;;;14.50;;
66089;SDS011;53113;45.602;11.904;2022-11-15T12:43:42;17.70;;;13.70;;
66089;SDS011;53113;45.602;11.904;2022-11-15T12:46:58;18.70;;;14.10;;
66089;SDS011;53113;45.602;11.904;2022-11-15T13:02:22;20.00;;;15.10;;
66089;SDS011;53113;45.602;11.904;2022-11-15T13:04:49;21.00;;;14.30;;
66089;SDS011;53113;45.602;11.904;2022-11-15T13:10:07;19.50;;;13.60;;
66089;SDS011;53113;45.602;11.904;2022-11-15T13:20:54;21.90;;;14.20;;
66089;SDS011;53113;45.602;11.904;2022-11-15T13:23:21;19.30;;;13.80;;
66089;SDS011;53113;45.602;11.904;2022-11-15T13:26:09;19.30;;;13.70;;
66089;SDS011;53113;45.602;11.904;2022-11-15T13:34:12;22.30;;;14.70;;
66089;SDS011;53113;45.602;11.904;2022-11-15T13:36:39;20.40;;;14.90;;
66089;SDS011;53113;45.602;11.904;2022-11-15T13:39:23;20.40;;;14.50;;
66089;SDS011;53113;45.602;11.904;2022-11-15T13:42:02;16.90;;;13.40;;
66089;SDS011;53113;45.602;11.904;2022-11-15T13:44:32;18.00;;;13.00;;
66089;SDS011;53113;45.602;11.904;2022-11-15T13:47:06;19.60;;;14.50;;
66089;SDS011;53113;45.602;11.904;2022-11-15T13:49:38;17.90;;;13.70;;
66089;SDS011;53113;45.602;11.904;2022-11-15T13:52:05;17.80;;;12.80;;
66089;SDS011;53113;45.602;11.904;2022-11-15T13:57:32;17.90;;;13.50;;
66089;SDS011;53113;45.602;11.904;2022-11-15T14:00:03;19.50;;;13.40;;
66089;SDS011;53113;45.602;11.904;2022-11-15T14:02:32;19.20;;;14.00;;
66089;SDS011;53113;45.602;11.904;2022-11-15T14:05:02;17.10;;;12.80;;
66089;SDS011;53113;45.602;11.904;2022-11-15T14:07:53;17.40;;;12.70;;
66089;SDS011;53113;45.602;11.904;2022-11-15T14:10:29;17.10;;;13.80;;
66089;SDS011;53113;45.602;11.904;2022-11-15T14:13:02;16.00;;;12.30;;
66089;SDS011;53113;45.602;11.904;2022-11-15T14:17:59;19.80;;;13.20;;
66089;SDS011;53113;45.602;11.904;2022-11-15T14:22:54;17.80;;;14.10;;
66089;SDS011;53113;45.602;11.904;2022-11-15T14:25:22;17.20;;;13.00;;
66089;SDS011;53113;45.602;11.904;2022-11-15T14:30:37;17.30;;;13.40;;
66089;SDS011;53113;45.602;11.904;2022-11-15T14:35:50;16.80;;;12.60;;
66089;SDS011;53113;45.602;11.904;2022-11-15T14:38:16;16.90;;;13.00;;
66089;SDS011;53113;45.602;11.904;2022-11-15T14:40:43;17.30;;;13.00;;
66089;SDS011;53113;45.602;11.904;2022-11-15T14:43:10;16.30;;;11.90;;
66089;SDS011;53113;45.602;11.904;2022-11-15T14:45:37;16.00;;;11.50;;
66089;SDS011;53113;45.602;11.904;2022-11-15T14:48:04;15.70;;;11.50;;
66089;SDS011;53113;45.602;11.904;2022-11-15T14:50:31;14.80;;;11.60;;
66089;SDS011;53113;45.602;11.904;2022-11-15T14:52:58;16.60;;;11.70;;
66089;SDS011;53113;45.602;11.904;2022-11-15T14:55:27;16.60;;;11.80;;
66089;SDS011;53113;45.602;11.904;2022-11-15T14:57:57;16.80;;;12.30;;
66089;SDS011;53113;45.602;11.904;2022-11-15T15:00:24;15.90;;;11.90;;
66089;SDS011;53113;45.602;11.904;2022-11-15T15:02:51;15.60;;;11.70;;
66089;SDS011;53113;45.602;11.904;2022-11-15T15:05:20;16.10;;;12.10;;
66089;SDS011;53113;45.602;11.904;2022-11-15T15:07:49;14.90;;;11.60;;
66089;SDS011;53113;45.602;11.904;2022-11-15T15:10:18;15.40;;;12.00;;
66089;SDS011;53113;45.602;11.904;2022-11-15T15:12:44;15.90;;;11.30;;
66089;SDS011;53113;45.602;11.904;2022-11-15T15:15:23;16.10;;;12.10;;
66089;SDS011;53113;45.602;11.904;2022-11-15T15:17:51;17.40;;;12.80;;
66089;SDS011;53113;45.602;11.904;2022-11-15T15:20:16;16.30;;;11.40;;
66089;SDS011;53113;45.602;11.904;2022-11-15T15:22:44;15.00;;;11.50;;
66089;SDS011;53113;45.602;11.904;2022-11-15T15:25:29;18.50;;;13.70;;
66089;SDS011;53113;45.602;11.904;2022-11-15T15:27:58;18.20;;;13.90;;
66089;SDS011;53113;45.602;11.904;2022-11-15T15:30:25;17.00;;;13.20;;
66089;SDS011;53113;45.602;11.904;2022-11-15T15:32:52;16.60;;;11.90;;
66089;SDS011;53113;45.602;11.904;2022-11-15T15:35:19;16.30;;;12.30;;
66089;SDS011;53113;45.602;11.904;2022-11-15T15:37:46;19.20;;;14.20;;
66089;SDS011;53113;45.602;11.904;2022-11-15T15:40:14;17.10;;;12.90;;
66089;SDS011;53113;45.602;11.904;2022-11-15T15:42:47;17.80;;;13.70;;
66089;SDS011;53113;45.602;11.904;2022-11-15T15:45:14;18.70;;;13.80;;
66089;SDS011;53113;45.602;11.904;2022-11-15T15:47:43;16.90;;;13.40;;
66089;SDS011;53113;45.602;11.904;2022-11-15T15:50:21;18.40;;;13.70;;
66089;SDS011;53113;45.602;11.904;2022-11-15T15:52:48;18.70;;;13.60;;
66089;SDS011;53113;45.602;11.904;2022-11-15T15:55:15;21.20;;;17.10;;
66089;SDS011;53113;45.602;11.904;2022-11-15T15:57:42;20.30;;;15.40;;
66089;SDS011;53113;45.602;11.904;2022-11-15T16:00:08;23.60;;;16.90;;
66089;SDS011;53113;45.602;11.904;2022-11-15T16:02:35;20.60;;;16.30;;
66089;SDS011;53113;45.602;11.904;2022-11-15T16:05:01;20.90;;;16.40;;
66089;SDS011;53113;45.602;11.904;2022-11-15T16:07:26;24.00;;;17.50;;
66089;SDS011;53113;45.602;11.904;2022-11-15T16:09:54;22.50;;;16.40;;
66089;SDS011;53113;45.602;11.904;2022-11-15T16:12:30;20.70;;;15.60;;
66089;SDS011;53113;45.602;11.904;2022-11-15T16:15:00;21.30;;;15.90;;
66089;SDS011;53113;45.602;11.904;2022-11-15T16:17:28;20.40;;;15.40;;
66089;SDS011;53113;45.602;11.904;2022-11-15T16:19:59;21.20;;;14.30;;
66089;SDS011;53113;45.602;11.904;2022-11-15T16:22:24;19.70;;;14.70;;
66089;SDS011;53113;45.602;11.904;2022-11-15T16:24:50;20.20;;;15.90;;
66089;SDS011;53113;45.602;11.904;2022-11-15T16:27:17;20.30;;;15.90;;
66089;SDS011;53113;45.602;11.904;2022-11-15T16:32:11;18.80;;;14.70;;
66089;SDS011;53113;45.602;11.904;2022-11-15T16:34:37;19.40;;;14.20;;
66089;SDS011;53113;45.602;11.904;2022-11-15T16:37:04;20.70;;;14.30;;
66089;SDS011;53113;45.602;11.904;2022-11-15T16:39:31;20.10;;;15.70;;
66089;SDS011;53113;45.602;11.904;2022-11-15T16:41:57;20.90;;;15.40;;
66089;SDS011;53113;45.602;11.904;2022-11-15T16:44:25;25.90;;;18.40;;